sensor_id;sensor_type;location;lat;lon;timestamp;temperature;humidity
18454;DHT22;9356;52.202;20.950;2023-06-24T00:00:05;22.40;88.90
18454;DHT22;9356;52.202;20.950;2023-06-24T00:01:09;22.40;89.70
18454;DHT22;9356;52.202;20.950;2023-06-24T00:02:19;22.40;89.80
18454;DHT22;9356;52.202;20.950;2023-06-24T00:03:29;22.30;89.60
18454;DHT22;9356;52.202;20.950;2023-06-24T00:04:33;22.40;90.10
18454;DHT22;9356;52.202;20.950;2023-06-24T00:05:41;22.40;90.10
18454;DHT22;9356;52.202;20.950;2023-06-24T00:06:47;22.40;90.10
18454;DHT22;9356;52.202;20.950;2023-06-24T00:07:51;22.40;90.10
18454;DHT22;9356;52.202;20.950;2023-06-24T00:08:54;22.40;90.10
18454;DHT22;9356;52.202;20.950;2023-06-24T00:10:04;22.40;90.00
18454;DHT22;9356;52.202;20.950;2023-06-24T00:11:10;22.40;90.00
18454;DHT22;9356;52.202;20.950;2023-06-24T00:12:16;22.40;89.80
18454;DHT22;9356;52.202;20.950;2023-06-24T00:13:22;22.40;89.90
18454;DHT22;9356;52.202;20.950;2023-06-24T00:14:28;22.50;89.90
18454;DHT22;9356;52.202;20.950;2023-06-24T00:15:33;22.50;90.00
18454;DHT22;9356;52.202;20.950;2023-06-24T00:16:37;22.50;90.00
18454;DHT22;9356;52.202;20.950;2023-06-24T00:17:41;22.50;89.70
18454;DHT22;9356;52.202;20.950;2023-06-24T00:18:47;22.50;89.80
18454;DHT22;9356;52.202;20.950;2023-06-24T00:19:50;22.50;89.70
18454;DHT22;9356;52.202;20.950;2023-06-24T00:20:57;22.60;89.70
18454;DHT22;9356;52.202;20.950;2023-06-24T00:22:00;22.60;89.40
18454;DHT22;9356;52.202;20.950;2023-06-24T00:23:06;22.60;89.40
18454;DHT22;9356;52.202;20.950;2023-06-24T00:24:09;22.60;89.60
18454;DHT22;9356;52.202;20.950;2023-06-24T00:25:14;22.60;89.50
18454;DHT22;9356;52.202;20.950;2023-06-24T00:26:17;22.70;89.40
18454;DHT22;9356;52.202;20.950;2023-06-24T00:27:21;22.70;89.50
18454;DHT22;9356;52.202;20.950;2023-06-24T00:28:24;22.70;89.40
18454;DHT22;9356;52.202;20.950;2023-06-24T00:29:28;22.70;89.40
18454;DHT22;9356;52.202;20.950;2023-06-24T00:30:36;22.70;89.30
18454;DHT22;9356;52.202;20.950;2023-06-24T00:31:44;22.80;89.20
18454;DHT22;9356;52.202;20.950;2023-06-24T00:32:53;22.80;89.00
18454;DHT22;9356;52.202;20.950;2023-06-24T00:33:59;22.80;89.00
18454;DHT22;9356;52.202;20.950;2023-06-24T00:35:02;22.80;88.90
18454;DHT22;9356;52.202;20.950;2023-06-24T00:36:07;22.80;89.10
18454;DHT22;9356;52.202;20.950;2023-06-24T00:37:14;22.80;89.10
18454;DHT22;9356;52.202;20.950;2023-06-24T00:38:19;22.80;89.70
18454;DHT22;9356;52.202;20.950;2023-06-24T00:39:21;22.80;89.20
18454;DHT22;9356;52.202;20.950;2023-06-24T00:40:26;22.80;88.50
18454;DHT22;9356;52.202;20.950;2023-06-24T00:41:29;22.80;89.40
18454;DHT22;9356;52.202;20.950;2023-06-24T00:42:33;22.70;89.10
18454;DHT22;9356;52.202;20.950;2023-06-24T00:43:36;22.80;89.40
18454;DHT22;9356;52.202;20.950;2023-06-24T00:44:42;22.80;89.30
18454;DHT22;9356;52.202;20.950;2023-06-24T00:45:49;22.80;89.00
18454;DHT22;9356;52.202;20.950;2023-06-24T00:46:56;22.80;89.40
18454;DHT22;9356;52.202;20.950;2023-06-24T00:48:01;22.70;89.40
18454;DHT22;9356;52.202;20.950;2023-06-24T00:49:08;22.70;89.10
18454;DHT22;9356;52.202;20.950;2023-06-24T00:50:11;22.70;89.50
18454;DHT22;9356;52.202;20.950;2023-06-24T00:51:16;22.70;89.80
18454;DHT22;9356;52.202;20.950;2023-06-24T00:52:19;22.70;89.60
18454;DHT22;9356;52.202;20.950;2023-06-24T00:53:23;22.70;89.70
18454;DHT22;9356;52.202;20.950;2023-06-24T00:54:28;22.70;89.60
18454;DHT22;9356;52.202;20.950;2023-06-24T00:55:34;22.70;89.70
18454;DHT22;9356;52.202;20.950;2023-06-24T00:56:37;22.70;89.70
18454;DHT22;9356;52.202;20.950;2023-06-24T00:57:44;22.70;89.60
18454;DHT22;9356;52.202;20.950;2023-06-24T00:58:49;22.70;89.80
18454;DHT22;9356;52.202;20.950;2023-06-24T00:59:54;22.70;89.80
18454;DHT22;9356;52.202;20.950;2023-06-24T01:01:01;22.70;89.80
18454;DHT22;9356;52.202;20.950;2023-06-24T01:02:05;22.70;89.80
18454;DHT22;9356;52.202;20.950;2023-06-24T01:03:10;22.70;89.70
18454;DHT22;9356;52.202;20.950;2023-06-24T01:04:17;22.70;89.90
18454;DHT22;9356;52.202;20.950;2023-06-24T01:05:23;22.70;89.80
18454;DHT22;9356;52.202;20.950;2023-06-24T01:06:30;22.70;89.80
18454;DHT22;9356;52.202;20.950;2023-06-24T01:07:35;22.70;89.70
18454;DHT22;9356;52.202;20.950;2023-06-24T01:08:41;22.70;89.90
18454;DHT22;9356;52.202;20.950;2023-06-24T01:09:44;22.70;89.90
18454;DHT22;9356;52.202;20.950;2023-06-24T01:10:48;22.70;89.80
18454;DHT22;9356;52.202;20.950;2023-06-24T01:11:53;22.70;89.50
18454;DHT22;9356;52.202;20.950;2023-06-24T01:12:57;22.70;89.90
18454;DHT22;9356;52.202;20.950;2023-06-24T01:14:01;22.70;89.90
18454;DHT22;9356;52.202;20.950;2023-06-24T01:15:07;22.70;89.90
18454;DHT22;9356;52.202;20.950;2023-06-24T01:16:33;22.70;90.00
18454;DHT22;9356;52.202;20.950;2023-06-24T01:17:45;22.70;90.00
18454;DHT22;9356;52.202;20.950;2023-06-24T01:18:55;22.70;90.00
18454;DHT22;9356;52.202;20.950;2023-06-24T01:20:08;22.70;89.70
18454;DHT22;9356;52.202;20.950;2023-06-24T01:21:21;22.70;89.40
18454;DHT22;9356;52.202;20.950;2023-06-24T01:24:37;22.60;89.60
18454;DHT22;9356;52.202;20.950;2023-06-24T01:26:06;22.50;89.80
18454;DHT22;9356;52.202;20.950;2023-06-24T01:27:52;22.60;89.90
18454;DHT22;9356;52.202;20.950;2023-06-24T01:29:27;22.50;89.90
18454;DHT22;9356;52.202;20.950;2023-06-24T01:30:58;22.50;90.00
18454;DHT22;9356;52.202;20.950;2023-06-24T01:32:23;22.50;90.00
18454;DHT22;9356;52.202;20.950;2023-06-24T01:33:38;22.40;90.00
18454;DHT22;9356;52.202;20.950;2023-06-24T01:34:55;22.40;90.00
18454;DHT22;9356;52.202;20.950;2023-06-24T01:36:02;22.40;90.10
18454;DHT22;9356;52.202;20.950;2023-06-24T01:37:13;22.40;90.10
18454;DHT22;9356;52.202;20.950;2023-06-24T01:38:24;22.30;90.20
18454;DHT22;9356;52.202;20.950;2023-06-24T01:39:33;22.40;90.10
18454;DHT22;9356;52.202;20.950;2023-06-24T01:40:46;22.40;90.10
18454;DHT22;9356;52.202;20.950;2023-06-24T01:41:57;22.30;90.10
18454;DHT22;9356;52.202;20.950;2023-06-24T01:43:04;22.30;90.00
18454;DHT22;9356;52.202;20.950;2023-06-24T01:44:13;22.30;90.10
18454;DHT22;9356;52.202;20.950;2023-06-24T01:45:23;22.30;90.20
18454;DHT22;9356;52.202;20.950;2023-06-24T01:46:29;22.30;90.10
18454;DHT22;9356;52.202;20.950;2023-06-24T01:47:36;22.30;90.10
18454;DHT22;9356;52.202;20.950;2023-06-24T01:48:43;22.30;90.20
18454;DHT22;9356;52.202;20.950;2023-06-24T01:49:53;22.20;90.20
18454;DHT22;9356;52.202;20.950;2023-06-24T01:50:59;22.20;90.10
18454;DHT22;9356;52.202;20.950;2023-06-24T01:52:09;22.20;90.20
18454;DHT22;9356;52.202;20.950;2023-06-24T01:53:16;22.30;90.30
18454;DHT22;9356;52.202;20.950;2023-06-24T01:54:23;22.30;90.00
18454;DHT22;9356;52.202;20.950;2023-06-24T01:55:29;22.30;90.10
18454;DHT22;9356;52.202;20.950;2023-06-24T01:56:38;22.20;90.10
18454;DHT22;9356;52.202;20.950;2023-06-24T01:57:45;22.20;90.10
18454;DHT22;9356;52.202;20.950;2023-06-24T01:58:55;22.20;90.40
18454;DHT22;9356;52.202;20.950;2023-06-24T02:01:35;22.20;90.20
18454;DHT22;9356;52.202;20.950;2023-06-24T02:02:44;22.20;90.20
18454;DHT22;9356;52.202;20.950;2023-06-24T02:03:49;22.10;90.00
18454;DHT22;9356;52.202;20.950;2023-06-24T02:04:57;22.10;90.20
18454;DHT22;9356;52.202;20.950;2023-06-24T02:06:03;22.10;90.30
18454;DHT22;9356;52.202;20.950;2023-06-24T02:07:12;22.10;90.00
18454;DHT22;9356;52.202;20.950;2023-06-24T02:08:19;22.10;90.30
18454;DHT22;9356;52.202;20.950;2023-06-24T02:09:24;22.10;90.20
18454;DHT22;9356;52.202;20.950;2023-06-24T02:10:31;22.10;90.20
18454;DHT22;9356;52.202;20.950;2023-06-24T02:11:37;22.10;90.20
18454;DHT22;9356;52.202;20.950;2023-06-24T02:12:44;22.10;90.20
18454;DHT22;9356;52.202;20.950;2023-06-24T02:13:49;22.00;90.00
18454;DHT22;9356;52.202;20.950;2023-06-24T02:14:57;22.00;90.20
18454;DHT22;9356;52.202;20.950;2023-06-24T02:16:06;22.10;90.30
18454;DHT22;9356;52.202;20.950;2023-06-24T02:17:16;22.10;90.20
18454;DHT22;9356;52.202;20.950;2023-06-24T02:18:22;22.00;90.10
18454;DHT22;9356;52.202;20.950;2023-06-24T02:19:31;22.00;90.20
18454;DHT22;9356;52.202;20.950;2023-06-24T02:20:40;22.10;90.30
18454;DHT22;9356;52.202;20.950;2023-06-24T02:21:48;22.00;90.20
18454;DHT22;9356;52.202;20.950;2023-06-24T02:22:58;21.90;90.40
18454;DHT22;9356;52.202;20.950;2023-06-24T02:24:09;22.00;90.30
18454;DHT22;9356;52.202;20.950;2023-06-24T02:25:15;22.10;90.20
18454;DHT22;9356;52.202;20.950;2023-06-24T02:26:22;22.10;90.20
18454;DHT22;9356;52.202;20.950;2023-06-24T02:27:29;22.00;90.10
18454;DHT22;9356;52.202;20.950;2023-06-24T02:28:36;22.00;90.50
18454;DHT22;9356;52.202;20.950;2023-06-24T02:29:43;22.00;90.20
18454;DHT22;9356;52.202;20.950;2023-06-24T02:31:20;22.00;90.20
18454;DHT22;9356;52.202;20.950;2023-06-24T02:32:25;22.00;90.20
18454;DHT22;9356;52.202;20.950;2023-06-24T02:33:33;22.00;90.20
18454;DHT22;9356;52.202;20.950;2023-06-24T02:34:37;22.00;90.00
18454;DHT22;9356;52.202;20.950;2023-06-24T02:35:41;22.00;90.30
18454;DHT22;9356;52.202;20.950;2023-06-24T02:36:47;22.00;90.50
18454;DHT22;9356;52.202;20.950;2023-06-24T02:37:50;22.00;90.20
18454;DHT22;9356;52.202;20.950;2023-06-24T02:38:54;22.00;90.20
18454;DHT22;9356;52.202;20.950;2023-06-24T02:39:59;22.00;90.30
18454;DHT22;9356;52.202;20.950;2023-06-24T02:41:07;22.00;90.20
18454;DHT22;9356;52.202;20.950;2023-06-24T02:42:12;22.00;90.30
18454;DHT22;9356;52.202;20.950;2023-06-24T02:43:16;22.00;90.20
18454;DHT22;9356;52.202;20.950;2023-06-24T02:44:20;22.00;90.20
18454;DHT22;9356;52.202;20.950;2023-06-24T02:45:26;22.00;90.20
18454;DHT22;9356;52.202;20.950;2023-06-24T02:46:34;22.10;90.20
18454;DHT22;9356;52.202;20.950;2023-06-24T02:47:40;22.10;90.10
18454;DHT22;9356;52.202;20.950;2023-06-24T02:48:53;22.10;90.20
18454;DHT22;9356;52.202;20.950;2023-06-24T02:49:57;22.00;90.20
18454;DHT22;9356;52.202;20.950;2023-06-24T02:51:02;22.10;90.10
18454;DHT22;9356;52.202;20.950;2023-06-24T02:52:06;22.10;90.10
18454;DHT22;9356;52.202;20.950;2023-06-24T02:53:12;22.10;90.10
18454;DHT22;9356;52.202;20.950;2023-06-24T02:54:18;22.20;90.10
18454;DHT22;9356;52.202;20.950;2023-06-24T02:55:45;22.10;90.00
18454;DHT22;9356;52.202;20.950;2023-06-24T02:56:53;22.10;90.10
18454;DHT22;9356;52.202;20.950;2023-06-24T02:58:07;22.10;90.10
18454;DHT22;9356;52.202;20.950;2023-06-24T02:59:13;22.10;90.20
18454;DHT22;9356;52.202;20.950;2023-06-24T03:00:29;22.10;90.30
18454;DHT22;9356;52.202;20.950;2023-06-24T03:01:42;22.10;90.30
18454;DHT22;9356;52.202;20.950;2023-06-24T03:02:49;22.10;90.40
18454;DHT22;9356;52.202;20.950;2023-06-24T03:03:56;22.10;90.30
18454;DHT22;9356;52.202;20.950;2023-06-24T03:05:01;22.10;90.20
18454;DHT22;9356;52.202;20.950;2023-06-24T03:06:07;22.10;90.40
18454;DHT22;9356;52.202;20.950;2023-06-24T03:07:12;22.10;90.40
18454;DHT22;9356;52.202;20.950;2023-06-24T03:08:19;22.10;90.30
18454;DHT22;9356;52.202;20.950;2023-06-24T03:09:24;22.10;90.30
18454;DHT22;9356;52.202;20.950;2023-06-24T03:10:36;22.10;90.20
18454;DHT22;9356;52.202;20.950;2023-06-24T03:11:44;22.20;90.30
18454;DHT22;9356;52.202;20.950;2023-06-24T03:12:56;22.10;90.20
18454;DHT22;9356;52.202;20.950;2023-06-24T03:14:07;22.10;90.50
18454;DHT22;9356;52.202;20.950;2023-06-24T03:15:15;22.10;90.30
18454;DHT22;9356;52.202;20.950;2023-06-24T03:16:18;22.20;90.50
18454;DHT22;9356;52.202;20.950;2023-06-24T03:17:37;22.20;90.50
18454;DHT22;9356;52.202;20.950;2023-06-24T03:18:42;22.20;90.40
18454;DHT22;9356;52.202;20.950;2023-06-24T03:19:47;22.10;90.40
18454;DHT22;9356;52.202;20.950;2023-06-24T03:20:51;22.20;90.60
18454;DHT22;9356;52.202;20.950;2023-06-24T03:21:59;22.20;90.60
18454;DHT22;9356;52.202;20.950;2023-06-24T03:23:03;22.20;90.40
18454;DHT22;9356;52.202;20.950;2023-06-24T03:24:06;22.20;90.50
18454;DHT22;9356;52.202;20.950;2023-06-24T03:25:12;22.20;90.50
18454;DHT22;9356;52.202;20.950;2023-06-24T03:26:15;22.20;90.40
18454;DHT22;9356;52.202;20.950;2023-06-24T03:27:20;22.30;90.40
18454;DHT22;9356;52.202;20.950;2023-06-24T03:28:23;22.20;90.50
18454;DHT22;9356;52.202;20.950;2023-06-24T03:29:40;22.30;90.50
18454;DHT22;9356;52.202;20.950;2023-06-24T03:30:47;22.20;90.40
18454;DHT22;9356;52.202;20.950;2023-06-24T03:31:54;22.30;90.50
18454;DHT22;9356;52.202;20.950;2023-06-24T03:33:00;22.30;90.60
18454;DHT22;9356;52.202;20.950;2023-06-24T03:34:05;22.40;90.90
18454;DHT22;9356;52.202;20.950;2023-06-24T03:35:10;22.30;90.40
18454;DHT22;9356;52.202;20.950;2023-06-24T03:36:15;22.40;90.60
18454;DHT22;9356;52.202;20.950;2023-06-24T03:37:20;22.40;90.70
18454;DHT22;9356;52.202;20.950;2023-06-24T03:38:23;22.40;90.60
18454;DHT22;9356;52.202;20.950;2023-06-24T03:39:31;22.40;90.60
18454;DHT22;9356;52.202;20.950;2023-06-24T03:40:34;22.40;90.60
18454;DHT22;9356;52.202;20.950;2023-06-24T03:41:40;22.60;90.60
18454;DHT22;9356;52.202;20.950;2023-06-24T03:42:49;22.50;90.60
18454;DHT22;9356;52.202;20.950;2023-06-24T03:43:54;22.50;90.50
18454;DHT22;9356;52.202;20.950;2023-06-24T03:44:59;22.50;90.50
18454;DHT22;9356;52.202;20.950;2023-06-24T03:46:03;22.60;90.40
18454;DHT22;9356;52.202;20.950;2023-06-24T03:47:07;22.60;90.40
18454;DHT22;9356;52.202;20.950;2023-06-24T03:48:11;22.60;90.70
18454;DHT22;9356;52.202;20.950;2023-06-24T03:49:14;22.70;90.50
18454;DHT22;9356;52.202;20.950;2023-06-24T03:50:21;22.70;90.50
18454;DHT22;9356;52.202;20.950;2023-06-24T03:51:24;22.70;90.60
18454;DHT22;9356;52.202;20.950;2023-06-24T03:52:28;22.80;90.70
18454;DHT22;9356;52.202;20.950;2023-06-24T03:53:31;22.80;90.60
18454;DHT22;9356;52.202;20.950;2023-06-24T03:54:36;22.80;90.50
18454;DHT22;9356;52.202;20.950;2023-06-24T03:55:39;22.90;90.40
18454;DHT22;9356;52.202;20.950;2023-06-24T03:56:48;23.00;90.80
18454;DHT22;9356;52.202;20.950;2023-06-24T03:57:51;23.10;90.80
18454;DHT22;9356;52.202;20.950;2023-06-24T03:58:56;23.10;90.40
18454;DHT22;9356;52.202;20.950;2023-06-24T04:00:00;23.20;90.50
18454;DHT22;9356;52.202;20.950;2023-06-24T04:01:14;23.20;90.40
18454;DHT22;9356;52.202;20.950;2023-06-24T04:02:17;23.30;90.30
18454;DHT22;9356;52.202;20.950;2023-06-24T04:03:23;23.30;90.20
18454;DHT22;9356;52.202;20.950;2023-06-24T04:04:28;23.30;90.10
18454;DHT22;9356;52.202;20.950;2023-06-24T04:05:34;23.30;90.00
18454;DHT22;9356;52.202;20.950;2023-06-24T04:06:42;23.30;90.00
18454;DHT22;9356;52.202;20.950;2023-06-24T04:07:52;23.30;90.00
18454;DHT22;9356;52.202;20.950;2023-06-24T04:08:56;23.30;90.10
18454;DHT22;9356;52.202;20.950;2023-06-24T04:10:03;23.30;90.00
18454;DHT22;9356;52.202;20.950;2023-06-24T04:11:06;23.30;90.00
18454;DHT22;9356;52.202;20.950;2023-06-24T04:12:11;23.30;90.10
18454;DHT22;9356;52.202;20.950;2023-06-24T04:13:14;23.30;90.00
18454;DHT22;9356;52.202;20.950;2023-06-24T04:14:18;23.40;90.10
18454;DHT22;9356;52.202;20.950;2023-06-24T04:15:21;23.50;90.30
18454;DHT22;9356;52.202;20.950;2023-06-24T04:16:26;23.60;90.50
18454;DHT22;9356;52.202;20.950;2023-06-24T04:17:29;23.60;90.40
18454;DHT22;9356;52.202;20.950;2023-06-24T04:18:34;23.80;90.10
18454;DHT22;9356;52.202;20.950;2023-06-24T04:19:41;24.00;89.70
18454;DHT22;9356;52.202;20.950;2023-06-24T04:20:50;24.10;89.40
18454;DHT22;9356;52.202;20.950;2023-06-24T04:21:54;24.20;88.20
18454;DHT22;9356;52.202;20.950;2023-06-24T04:22:58;24.20;87.50
18454;DHT22;9356;52.202;20.950;2023-06-24T04:24:05;24.20;87.40
18454;DHT22;9356;52.202;20.950;2023-06-24T04:25:09;24.20;87.50
18454;DHT22;9356;52.202;20.950;2023-06-24T04:26:12;24.10;87.50
18454;DHT22;9356;52.202;20.950;2023-06-24T04:27:17;24.10;87.30
18454;DHT22;9356;52.202;20.950;2023-06-24T04:28:20;24.10;87.30
18454;DHT22;9356;52.202;20.950;2023-06-24T04:29:25;24.10;87.10
18454;DHT22;9356;52.202;20.950;2023-06-24T04:30:28;24.10;87.20
18454;DHT22;9356;52.202;20.950;2023-06-24T04:31:32;24.10;87.50
18454;DHT22;9356;52.202;20.950;2023-06-24T04:32:36;24.00;87.20
18454;DHT22;9356;52.202;20.950;2023-06-24T04:33:40;24.00;87.20
18454;DHT22;9356;52.202;20.950;2023-06-24T04:34:44;24.00;87.30
18454;DHT22;9356;52.202;20.950;2023-06-24T04:35:53;23.90;87.10
18454;DHT22;9356;52.202;20.950;2023-06-24T04:37:02;23.90;87.50
18454;DHT22;9356;52.202;20.950;2023-06-24T04:38:07;23.90;87.80
18454;DHT22;9356;52.202;20.950;2023-06-24T04:39:10;23.80;87.80
18454;DHT22;9356;52.202;20.950;2023-06-24T04:40:16;23.80;87.70
18454;DHT22;9356;52.202;20.950;2023-06-24T04:41:18;23.80;87.80
18454;DHT22;9356;52.202;20.950;2023-06-24T04:42:23;23.80;87.90
18454;DHT22;9356;52.202;20.950;2023-06-24T04:43:26;23.80;88.20
18454;DHT22;9356;52.202;20.950;2023-06-24T04:44:31;23.80;88.20
18454;DHT22;9356;52.202;20.950;2023-06-24T04:45:38;23.80;88.40
18454;DHT22;9356;52.202;20.950;2023-06-24T04:46:41;23.80;88.30
18454;DHT22;9356;52.202;20.950;2023-06-24T04:47:45;23.80;88.10
18454;DHT22;9356;52.202;20.950;2023-06-24T04:48:50;23.80;87.80
18454;DHT22;9356;52.202;20.950;2023-06-24T04:49:53;23.70;87.70
18454;DHT22;9356;52.202;20.950;2023-06-24T04:51:00;23.70;87.50
18454;DHT22;9356;52.202;20.950;2023-06-24T04:52:07;23.60;87.50
18454;DHT22;9356;52.202;20.950;2023-06-24T04:53:12;23.40;87.40
18454;DHT22;9356;52.202;20.950;2023-06-24T04:54:16;23.40;87.80
18454;DHT22;9356;52.202;20.950;2023-06-24T04:55:21;23.30;88.10
18454;DHT22;9356;52.202;20.950;2023-06-24T04:56:25;23.30;88.00
18454;DHT22;9356;52.202;20.950;2023-06-24T04:57:31;23.20;88.40
18454;DHT22;9356;52.202;20.950;2023-06-24T04:58:33;23.20;88.80
18454;DHT22;9356;52.202;20.950;2023-06-24T04:59:38;23.30;88.80
18454;DHT22;9356;52.202;20.950;2023-06-24T05:00:42;23.20;87.90
18454;DHT22;9356;52.202;20.950;2023-06-24T05:01:47;23.20;89.60
18454;DHT22;9356;52.202;20.950;2023-06-24T05:02:53;23.20;89.10
18454;DHT22;9356;52.202;20.950;2023-06-24T05:03:59;23.20;89.10
18454;DHT22;9356;52.202;20.950;2023-06-24T05:05:02;23.30;88.50
18454;DHT22;9356;52.202;20.950;2023-06-24T05:06:11;23.30;88.70
18454;DHT22;9356;52.202;20.950;2023-06-24T05:07:14;23.30;88.00
18454;DHT22;9356;52.202;20.950;2023-06-24T05:08:19;23.30;87.90
18454;DHT22;9356;52.202;20.950;2023-06-24T05:09:24;23.20;87.40
18454;DHT22;9356;52.202;20.950;2023-06-24T05:10:27;23.20;87.60
18454;DHT22;9356;52.202;20.950;2023-06-24T05:11:31;23.20;87.30
18454;DHT22;9356;52.202;20.950;2023-06-24T05:12:34;23.10;87.80
18454;DHT22;9356;52.202;20.950;2023-06-24T05:13:38;23.00;87.90
18454;DHT22;9356;52.202;20.950;2023-06-24T05:14:42;23.00;87.70
18454;DHT22;9356;52.202;20.950;2023-06-24T05:15:46;23.00;88.20
18454;DHT22;9356;52.202;20.950;2023-06-24T05:16:49;23.00;87.70
18454;DHT22;9356;52.202;20.950;2023-06-24T05:17:53;23.10;88.50
18454;DHT22;9356;52.202;20.950;2023-06-24T05:18:56;23.00;87.40
18454;DHT22;9356;52.202;20.950;2023-06-24T05:20:00;23.00;87.60
18454;DHT22;9356;52.202;20.950;2023-06-24T05:21:03;23.00;88.30
18454;DHT22;9356;52.202;20.950;2023-06-24T05:22:09;23.00;88.80
18454;DHT22;9356;52.202;20.950;2023-06-24T05:23:12;23.00;88.20
18454;DHT22;9356;52.202;20.950;2023-06-24T05:24:17;23.00;88.50
18454;DHT22;9356;52.202;20.950;2023-06-24T05:25:23;23.10;88.70
18454;DHT22;9356;52.202;20.950;2023-06-24T05:26:28;23.10;88.60
18454;DHT22;9356;52.202;20.950;2023-06-24T05:27:31;23.10;88.70
18454;DHT22;9356;52.202;20.950;2023-06-24T05:28:35;23.10;88.30
18454;DHT22;9356;52.202;20.950;2023-06-24T05:29:39;23.20;88.00
18454;DHT22;9356;52.202;20.950;2023-06-24T05:30:45;23.20;88.30
18454;DHT22;9356;52.202;20.950;2023-06-24T05:31:48;23.30;88.40
18454;DHT22;9356;52.202;20.950;2023-06-24T05:32:52;23.30;88.40
18454;DHT22;9356;52.202;20.950;2023-06-24T05:33:56;23.40;88.10
18454;DHT22;9356;52.202;20.950;2023-06-24T05:35:00;23.40;88.20
18454;DHT22;9356;52.202;20.950;2023-06-24T05:36:03;23.40;88.40
18454;DHT22;9356;52.202;20.950;2023-06-24T05:37:09;23.50;88.30
18454;DHT22;9356;52.202;20.950;2023-06-24T05:38:12;23.50;88.40
18454;DHT22;9356;52.202;20.950;2023-06-24T05:39:17;23.60;88.20
18454;DHT22;9356;52.202;20.950;2023-06-24T05:40:20;23.60;87.80
18454;DHT22;9356;52.202;20.950;2023-06-24T05:41:25;23.60;87.60
18454;DHT22;9356;52.202;20.950;2023-06-24T05:42:28;23.60;87.50
18454;DHT22;9356;52.202;20.950;2023-06-24T05:43:32;23.60;87.80
18454;DHT22;9356;52.202;20.950;2023-06-24T05:44:39;23.60;88.00
18454;DHT22;9356;52.202;20.950;2023-06-24T05:45:43;23.60;87.40
18454;DHT22;9356;52.202;20.950;2023-06-24T05:46:46;23.50;87.70
18454;DHT22;9356;52.202;20.950;2023-06-24T05:47:50;23.40;88.00
18454;DHT22;9356;52.202;20.950;2023-06-24T05:48:54;23.40;88.30
18454;DHT22;9356;52.202;20.950;2023-06-24T05:49:56;23.40;88.50
18454;DHT22;9356;52.202;20.950;2023-06-24T05:51:00;23.40;88.00
18454;DHT22;9356;52.202;20.950;2023-06-24T05:52:04;23.40;88.50
18454;DHT22;9356;52.202;20.950;2023-06-24T05:53:10;23.40;88.40
18454;DHT22;9356;52.202;20.950;2023-06-24T05:54:13;23.50;88.70
18454;DHT22;9356;52.202;20.950;2023-06-24T05:55:18;23.40;88.10
18454;DHT22;9356;52.202;20.950;2023-06-24T05:56:22;23.50;88.00
18454;DHT22;9356;52.202;20.950;2023-06-24T05:57:28;23.50;87.70
18454;DHT22;9356;52.202;20.950;2023-06-24T05:58:34;23.50;87.70
18454;DHT22;9356;52.202;20.950;2023-06-24T05:59:40;23.60;88.10
18454;DHT22;9356;52.202;20.950;2023-06-24T06:00:43;23.60;87.90
18454;DHT22;9356;52.202;20.950;2023-06-24T06:01:46;23.70;87.30
18454;DHT22;9356;52.202;20.950;2023-06-24T06:02:49;23.70;87.80
18454;DHT22;9356;52.202;20.950;2023-06-24T06:03:54;23.70;88.00
18454;DHT22;9356;52.202;20.950;2023-06-24T06:05:02;23.80;87.50
18454;DHT22;9356;52.202;20.950;2023-06-24T06:06:06;23.80;87.30
18454;DHT22;9356;52.202;20.950;2023-06-24T06:07:09;23.80;87.00
18454;DHT22;9356;52.202;20.950;2023-06-24T06:08:17;23.80;87.40
18454;DHT22;9356;52.202;20.950;2023-06-24T06:09:20;23.90;87.30
18454;DHT22;9356;52.202;20.950;2023-06-24T06:10:24;23.90;87.60
18454;DHT22;9356;52.202;20.950;2023-06-24T06:11:27;24.00;87.70
18454;DHT22;9356;52.202;20.950;2023-06-24T06:12:33;24.10;87.90
18454;DHT22;9356;52.202;20.950;2023-06-24T06:13:36;24.20;87.60
18454;DHT22;9356;52.202;20.950;2023-06-24T06:14:40;24.20;87.20
18454;DHT22;9356;52.202;20.950;2023-06-24T06:15:43;24.30;87.00
18454;DHT22;9356;52.202;20.950;2023-06-24T06:16:48;24.40;87.10
18454;DHT22;9356;52.202;20.950;2023-06-24T06:17:52;24.40;86.50
18454;DHT22;9356;52.202;20.950;2023-06-24T06:18:56;24.50;85.90
18454;DHT22;9356;52.202;20.950;2023-06-24T06:19:59;24.60;86.40
18454;DHT22;9356;52.202;20.950;2023-06-24T06:21:03;24.60;86.10
18454;DHT22;9356;52.202;20.950;2023-06-24T06:22:06;24.70;85.60
18454;DHT22;9356;52.202;20.950;2023-06-24T06:23:10;24.70;84.80
18454;DHT22;9356;52.202;20.950;2023-06-24T06:24:14;24.80;85.40
18454;DHT22;9356;52.202;20.950;2023-06-24T06:25:18;24.90;85.00
18454;DHT22;9356;52.202;20.950;2023-06-24T06:26:21;24.90;85.10
18454;DHT22;9356;52.202;20.950;2023-06-24T06:27:25;25.00;84.90
18454;DHT22;9356;52.202;20.950;2023-06-24T06:28:28;25.10;84.40
18454;DHT22;9356;52.202;20.950;2023-06-24T06:29:32;25.10;83.80
18454;DHT22;9356;52.202;20.950;2023-06-24T06:30:35;25.30;83.90
18454;DHT22;9356;52.202;20.950;2023-06-24T06:31:40;25.30;83.50
18454;DHT22;9356;52.202;20.950;2023-06-24T06:32:50;25.40;83.60
18454;DHT22;9356;52.202;20.950;2023-06-24T06:34:01;25.60;83.10
18454;DHT22;9356;52.202;20.950;2023-06-24T06:35:10;25.60;82.00
18454;DHT22;9356;52.202;20.950;2023-06-24T06:36:16;25.60;81.90
18454;DHT22;9356;52.202;20.950;2023-06-24T06:37:19;25.60;82.90
18454;DHT22;9356;52.202;20.950;2023-06-24T06:38:24;25.70;82.50
18454;DHT22;9356;52.202;20.950;2023-06-24T06:39:31;25.80;82.20
18454;DHT22;9356;52.202;20.950;2023-06-24T06:40:37;25.90;82.00
18454;DHT22;9356;52.202;20.950;2023-06-24T06:41:41;26.10;81.80
18454;DHT22;9356;52.202;20.950;2023-06-24T06:42:52;26.10;82.00
18454;DHT22;9356;52.202;20.950;2023-06-24T06:44:01;26.30;81.60
18454;DHT22;9356;52.202;20.950;2023-06-24T06:45:08;26.40;81.60
18454;DHT22;9356;52.202;20.950;2023-06-24T06:46:15;26.50;80.60
18454;DHT22;9356;52.202;20.950;2023-06-24T06:47:19;26.50;80.10
18454;DHT22;9356;52.202;20.950;2023-06-24T06:48:23;26.50;79.60
18454;DHT22;9356;52.202;20.950;2023-06-24T06:49:26;26.40;79.50
18454;DHT22;9356;52.202;20.950;2023-06-24T06:50:31;26.40;79.80
18454;DHT22;9356;52.202;20.950;2023-06-24T06:51:37;26.40;79.50
18454;DHT22;9356;52.202;20.950;2023-06-24T06:52:47;26.40;79.70
18454;DHT22;9356;52.202;20.950;2023-06-24T06:53:54;26.40;80.10
18454;DHT22;9356;52.202;20.950;2023-06-24T06:54:58;26.40;79.40
18454;DHT22;9356;52.202;20.950;2023-06-24T06:56:03;26.40;79.70
18454;DHT22;9356;52.202;20.950;2023-06-24T06:57:08;26.30;79.70
18454;DHT22;9356;52.202;20.950;2023-06-24T06:58:13;26.30;79.80
18454;DHT22;9356;52.202;20.950;2023-06-24T06:59:17;26.30;79.30
18454;DHT22;9356;52.202;20.950;2023-06-24T07:00:22;26.20;79.40
18454;DHT22;9356;52.202;20.950;2023-06-24T07:01:25;26.20;79.30